Time;durP1;ratioP1;P1;durP2;ratioP2;P2;SDS_P1;SDS_P2;PMS_P1;PMS_P2;Temp;Humidity;BMP_temperature;BMP_pressure;BME280_temperature;BME280_humidity;BME280_pressure;Samples;Min_cycle;Max_cycle;Signal;HPM_P1;HPM_P2
2023/04/23 00:02:05;;;;;;;18.70;16.80;;;11.40;91.20;;;;;;5035991;28;20190;-93
2023/04/23 00:04:35;;;;;;;20.33;18.00;;;11.40;92.00;;;;;;5036006;28;20174;-93
2023/04/23 00:07:03;;;;;;;20.73;18.57;;;11.50;92.40;;;;;;5037161;28;20186;-92
2023/04/23 00:09:31;;;;;;;18.33;16.43;;;11.60;91.90;;;;;;5039226;28;20230;-89
2023/04/23 00:11:57;;;;;;;19.40;17.27;;;11.60;91.50;;;;;;5055594;28;20281;-91
2023/04/23 00:14:26;;;;;;;19.87;16.87;;;11.60;91.70;;;;;;5028879;28;20184;-92
2023/04/23 00:16:52;;;;;;;18.37;16.37;;;11.50;91.80;;;;;;5039658;28;20237;-87
2023/04/23 00:19:19;;;;;;;17.87;15.93;;;11.60;91.80;;;;;;5058619;28;20214;-90
2023/04/23 00:21:45;;;;;;;18.53;16.57;;;11.60;92.10;;;;;;5045372;28;20172;-93
2023/04/23 00:24:14;;;;;;;19.13;16.37;;;11.60;91.80;;;;;;5036509;28;20180;-91
2023/04/23 00:26:43;;;;;;;19.40;16.03;;;11.60;92.10;;;;;;5043929;28;20187;-91
2023/04/23 00:29:09;;;;;;;17.80;15.67;;;11.60;92.60;;;;;;5057653;28;20177;-89
2023/04/23 00:31:45;;;;;;;17.70;15.87;;;11.60;92.60;;;;;;5054586;28;20200;-92
2023/04/23 00:34:21;;;;;;;17.00;15.27;;;11.60;92.80;;;;;;5050816;28;20187;-91
2023/04/23 00:36:48;;;;;;;17.00;15.20;;;11.60;93.40;;;;;;5054250;28;20162;-92
2023/04/23 00:39:14;;;;;;;19.60;15.73;;;11.60;93.20;;;;;;5054254;28;20186;-92
2023/04/23 00:41:41;;;;;;;18.00;15.40;;;11.60;93.00;;;;;;5054804;28;20167;-93
2023/04/23 00:44:11;;;;;;;16.57;14.77;;;11.60;93.30;;;;;;5058025;28;20170;-89
2023/04/23 00:46:38;;;;;;;16.90;15.23;;;11.70;92.70;;;;;;5057618;28;20154;-88
2023/04/23 00:49:05;;;;;;;15.80;14.20;;;11.70;92.60;;;;;;5057679;28;20161;-93
2023/04/23 00:51:34;;;;;;;16.60;14.77;;;11.70;92.50;;;;;;5041350;28;20176;-91
2023/04/23 00:54:14;;;;;;;16.07;14.47;;;11.80;92.10;;;;;;5033968;28;20643;-91
2023/04/23 00:56:39;;;;;;;16.40;14.70;;;11.90;90.10;;;;;;5033739;28;20332;-92
2023/04/23 00:59:05;;;;;;;16.53;14.73;;;11.90;89.60;;;;;;5035962;28;20176;-92
2023/04/23 01:01:32;;;;;;;15.70;14.20;;;11.90;89.10;;;;;;5034230;28;20168;-92
2023/04/23 01:03:57;;;;;;;15.30;13.70;;;11.90;89.70;;;;;;5033755;28;20633;-92
2023/04/23 01:06:27;;;;;;;15.30;12.90;;;11.90;87.70;;;;;;5035438;28;20174;-93
2023/04/23 01:08:53;;;;;;;14.30;12.77;;;11.90;86.20;;;;;;5057326;28;20201;-88
2023/04/23 01:11:19;;;;;;;15.47;13.80;;;12.00;83.20;;;;;;5057429;28;20162;-92
2023/04/23 01:13:45;;;;;;;14.30;12.80;;;12.10;81.70;;;;;;5057394;28;20269;-89
2023/04/23 01:16:14;;;;;;;14.77;13.13;;;12.20;79.30;;;;;;5057122;28;20172;-88
2023/04/23 01:18:39;;;;;;;14.30;12.83;;;12.20;76.30;;;;;;5054257;28;20166;-91
2023/04/23 01:21:13;;;;;;;14.13;12.67;;;12.20;73.70;;;;;;5039918;28;20265;-91
2023/04/23 01:23:45;;;;;;;14.03;12.43;;;12.10;73.20;;;;;;5041736;28;20183;-90
2023/04/23 01:26:14;;;;;;;13.80;11.63;;;12.10;73.50;;;;;;5040004;28;20193;-90
2023/04/23 01:28:42;;;;;;;13.70;12.13;;;12.10;73.60;;;;;;5035620;28;20533;-92
2023/04/23 01:31:09;;;;;;;12.23;10.80;;;12.10;75.20;;;;;;5034648;28;20588;-93
2023/04/23 01:33:35;;;;;;;12.57;11.27;;;12.10;75.50;;;;;;5034305;28;20356;-90
2023/04/23 01:36:03;;;;;;;13.50;11.17;;;12.10;75.00;;;;;;5033700;28;20276;-91
2023/04/23 01:38:32;;;;;;;13.27;11.07;;;12.10;76.30;;;;;;5036231;28;20166;-91
2023/04/23 01:40:58;;;;;;;13.90;11.43;;;12.10;76.00;;;;;;5038818;28;20178;-90
2023/04/23 01:43:24;;;;;;;10.73;9.73;;;12.10;77.00;;;;;;5053740;28;20176;-89
2023/04/23 01:45:51;;;;;;;12.07;10.87;;;12.20;75.60;;;;;;5050697;28;20175;-91
2023/04/23 01:48:17;;;;;;;12.27;10.07;;;12.10;75.50;;;;;;5053941;28;20167;-88
2023/04/23 01:50:43;;;;;;;10.73;9.63;;;12.10;76.90;;;;;;5054124;28;20176;-92
2023/04/23 01:53:09;;;;;;;11.37;10.23;;;12.10;78.40;;;;;;5032254;28;20748;-90
2023/04/23 01:55:41;;;;;;;11.90;10.67;;;12.00;79.00;;;;;;5042493;28;20204;-88
2023/04/23 01:58:07;;;;;;;11.30;10.07;;;12.10;78.30;;;;;;5044088;28;20217;-90
2023/04/23 02:00:33;;;;;;;11.97;10.50;;;12.00;79.60;;;;;;5033188;28;20206;-91
2023/04/23 02:02:59;;;;;;;11.93;10.73;;;12.10;79.80;;;;;;5033202;28;20669;-91
2023/04/23 02:05:27;;;;;;;11.83;10.37;;;12.10;78.90;;;;;;5056483;28;20169;-91
2023/04/23 02:07:53;;;;;;;11.83;9.53;;;12.10;80.20;;;;;;5039920;28;20192;-89
2023/04/23 02:10:22;;;;;;;12.07;10.40;;;12.10;78.80;;;;;;5054451;28;20176;-92
2023/04/23 02:12:49;;;;;;;12.17;10.00;;;12.00;80.00;;;;;;5050742;28;20214;-93
2023/04/23 02:15:15;;;;;;;11.70;9.73;;;12.10;79.20;;;;;;5053169;28;20204;-93
2023/04/23 02:17:41;;;;;;;11.33;10.13;;;12.10;78.50;;;;;;5025197;28;20180;-92
2023/04/23 02:20:09;;;;;;;12.27;11.07;;;12.10;77.80;;;;;;5038742;28;20284;-94
2023/04/23 02:22:39;;;;;;;11.73;10.53;;;12.10;77.30;;;;;;5037331;28;20173;-94
2023/04/23 02:25:07;;;;;;;11.93;10.73;;;12.10;77.60;;;;;;5035907;28;20174;-93
2023/04/23 02:27:33;;;;;;;12.30;10.10;;;12.00;77.90;;;;;;5037794;28;20179;-93
2023/04/23 02:29:59;;;;;;;12.63;11.30;;;12.00;79.30;;;;;;5050837;28;20221;-93
2023/04/23 02:32:28;;;;;;;12.23;11.00;;;12.00;79.60;;;;;;5038159;28;20699;-94
2023/04/23 02:34:55;;;;;;;12.80;10.87;;;12.10;78.60;;;;;;5037158;28;20241;-93
2023/04/23 02:37:21;;;;;;;13.53;11.50;;;12.10;77.40;;;;;;5036781;28;20174;-92
2023/04/23 02:39:46;;;;;;;12.70;11.37;;;12.10;76.90;;;;;;5055985;28;20217;-92
2023/04/23 02:42:12;;;;;;;13.27;11.87;;;12.10;75.00;;;;;;5038985;28;20252;-93
2023/04/23 02:44:39;;;;;;;12.77;11.50;;;12.10;75.90;;;;;;5037269;28;20230;-92
2023/04/23 02:47:05;;;;;;;11.80;10.60;;;12.20;74.90;;;;;;5036604;28;20189;-92
2023/04/23 02:49:31;;;;;;;12.67;11.37;;;12.30;72.30;;;;;;5035654;28;20181;-92
2023/04/23 02:51:56;;;;;;;12.30;11.10;;;12.30;71.20;;;;;;5036387;28;20590;-92
2023/04/23 02:54:22;;;;;;;12.07;10.77;;;12.40;67.50;;;;;;5035559;28;20182;-90
2023/04/23 02:56:48;;;;;;;12.83;10.87;;;12.40;66.90;;;;;;5034429;28;20240;-92
2023/04/23 02:59:14;;;;;;;12.20;10.87;;;12.50;65.00;;;;;;5035407;28;20182;-92
2023/04/23 03:01:40;;;;;;;12.10;10.87;;;12.50;62.60;;;;;;5035938;28;20167;-92
2023/04/23 03:04:06;;;;;;;12.33;11.03;;;12.40;59.80;;;;;;5034966;28;20226;-92
2023/04/23 03:06:34;;;;;;;11.83;10.60;;;12.30;60.50;;;;;;5036501;28;20171;-91
2023/04/23 03:09:00;;;;;;;12.40;10.87;;;12.20;63.60;;;;;;5035740;28;20187;-91
2023/04/23 03:11:26;;;;;;;12.03;10.73;;;12.10;66.00;;;;;;5036656;28;20648;-92
2023/04/23 03:13:52;;;;;;;12.20;10.93;;;12.00;68.90;;;;;;5036027;28;20235;-92
2023/04/23 03:16:18;;;;;;;11.50;10.10;;;12.00;70.00;;;;;;5036306;28;20255;-91
2023/04/23 03:18:44;;;;;;;11.93;10.20;;;12.00;68.80;;;;;;5035125;28;20183;-92
2023/04/23 03:21:10;;;;;;;11.83;10.63;;;11.90;69.30;;;;;;5035431;28;20550;-92
2023/04/23 03:23:36;;;;;;;11.97;10.53;;;11.70;73.00;;;;;;5040286;28;20187;-91
2023/04/23 03:26:02;;;;;;;13.53;10.57;;;11.70;76.20;;;;;;5059260;28;20178;-92
2023/04/23 03:28:30;;;;;;;11.10;10.00;;;11.60;78.80;;;;;;5051140;28;20180;-91
2023/04/23 03:30:55;;;;;;;13.43;10.33;;;11.50;81.50;;;;;;5038267;28;20194;-91
2023/04/23 03:33:24;;;;;;;12.07;10.77;;;11.60;82.70;;;;;;5037032;28;20681;-92
2023/04/23 03:35:50;;;;;;;10.90;9.80;;;11.50;82.40;;;;;;5042041;28;20217;-93
2023/04/23 03:38:19;;;;;;;12.33;9.87;;;11.50;83.60;;;;;;5042729;28;20165;-92
2023/04/23 03:40:47;;;;;;;11.07;9.97;;;11.50;83.70;;;;;;5045478;28;20224;-91
2023/04/23 03:43:15;;;;;;;10.73;9.57;;;11.50;82.90;;;;;;5037861;28;20189;-92
2023/04/23 03:45:42;;;;;;;11.10;9.67;;;11.40;84.20;;;;;;5046898;28;20191;-92
2023/04/23 03:48:09;;;;;;;11.13;9.23;;;11.40;86.10;;;;;;5040739;28;20190;-90
2023/04/23 03:50:39;;;;;;;10.67;9.57;;;11.40;86.00;;;;;;5034950;28;20177;-91
2023/04/23 03:53:06;;;;;;;10.80;9.03;;;11.50;84.90;;;;;;5053132;28;20212;-91
2023/04/23 03:55:32;;;;;;;11.20;9.50;;;11.40;83.90;;;;;;5036724;28;20200;-92
2023/04/23 03:58:00;;;;;;;10.90;9.50;;;11.50;83.40;;;;;;5054358;28;20173;-88
2023/04/23 04:00:26;;;;;;;12.03;9.70;;;11.50;80.60;;;;;;5058717;28;20161;-90
2023/04/23 04:02:55;;;;;;;13.03;9.67;;;11.50;80.00;;;;;;5049525;28;20623;-93
2023/04/23 04:05:22;;;;;;;10.30;9.20;;;11.40;80.30;;;;;;5038069;28;20585;-90
2023/04/23 04:07:47;;;;;;;11.90;9.07;;;11.30;82.10;;;;;;5055861;28;20189;-91
2023/04/23 04:10:14;;;;;;;10.30;8.93;;;11.20;84.40;;;;;;5035929;28;20173;-92
2023/04/23 04:12:41;;;;;;;10.40;9.40;;;11.20;85.90;;;;;;5036846;28;20234;-92
2023/04/23 04:15:07;;;;;;;12.37;9.73;;;11.20;84.60;;;;;;5036589;28;20251;-92
2023/04/23 04:17:33;;;;;;;9.57;8.67;;;11.20;85.00;;;;;;5033787;28;20190;-91
2023/04/23 04:19:59;;;;;;;10.83;8.47;;;11.20;86.50;;;;;;5034971;28;20177;-91
2023/04/23 04:22:26;;;;;;;10.33;9.20;;;11.10;84.10;;;;;;5033464;28;20175;-92
2023/04/23 04:24:51;;;;;;;9.80;8.80;;;11.10;86.90;;;;;;5033367;28;20184;-92
2023/04/23 04:27:17;;;;;;;12.03;8.90;;;11.10;85.60;;;;;;5036127;28;20180;-91
2023/04/23 04:29:43;;;;;;;10.03;9.00;;;11.10;86.80;;;;;;5034717;28;20260;-91
2023/04/23 04:32:10;;;;;;;9.63;8.60;;;11.20;86.40;;;;;;5034011;28;20205;-90
2023/04/23 04:34:37;;;;;;;9.23;8.30;;;11.20;84.10;;;;;;5035217;28;20278;-93
2023/04/23 04:37:03;;;;;;;9.27;8.33;;;11.20;84.40;;;;;;5034661;28;20213;-91
2023/04/23 04:39:29;;;;;;;14.13;9.17;;;11.20;83.80;;;;;;5032902;28;20177;-92
2023/04/23 04:41:56;;;;;;;10.60;8.80;;;11.20;84.00;;;;;;5034923;28;20181;-91
2023/04/23 04:44:22;;;;;;;10.70;8.03;;;11.20;83.90;;;;;;5037438;28;20187;-91
2023/04/23 04:46:48;;;;;;;11.90;9.03;;;11.20;83.60;;;;;;5038458;28;20191;-90
2023/04/23 04:49:13;;;;;;;11.37;8.10;;;11.10;84.20;;;;;;5035838;28;20285;-91
2023/04/23 04:51:40;;;;;;;10.30;8.30;;;11.10;86.30;;;;;;5052637;28;20158;-90
2023/04/23 04:54:11;;;;;;;10.00;7.33;;;11.10;86.70;;;;;;5058018;28;20194;-91
2023/04/23 04:56:40;;;;;;;9.40;7.27;;;11.10;87.30;;;;;;5046680;28;20241;-92
2023/04/23 04:59:06;;;;;;;9.70;7.43;;;11.00;86.60;;;;;;5048097;28;20182;-90
2023/04/23 05:01:32;;;;;;;10.20;6.90;;;11.20;85.90;;;;;;5051542;28;20242;-90
2023/04/23 05:04:21;;;;;;;9.93;7.47;;;11.20;87.60;;;;;;5043775;28;20181;-92
2023/04/23 05:06:47;;;;;;;9.17;6.87;;;11.30;86.00;;;;;;5038158;28;20176;-92
2023/04/23 05:09:16;;;;;;;11.33;7.50;;;11.20;84.00;;;;;;5039009;28;20214;-91
2023/04/23 05:12:00;;;;;;;9.70;6.40;;;11.20;84.40;;;;;;5037383;28;20174;-92
2023/04/23 05:14:26;;;;;;;9.40;6.50;;;11.20;84.70;;;;;;5036007;28;20186;-92
2023/04/23 05:16:52;;;;;;;6.93;5.80;;;11.20;85.40;;;;;;5035995;28;20197;-93
2023/04/23 05:19:17;;;;;;;10.33;6.13;;;11.30;86.20;;;;;;5048028;28;20162;-89
2023/04/23 05:21:46;;;;;;;7.23;5.70;;;11.30;84.90;;;;;;5056960;28;20261;-92
2023/04/23 05:24:12;;;;;;;9.33;5.73;;;11.30;84.40;;;;;;5057264;28;20185;-91
2023/04/23 05:26:40;;;;;;;7.43;5.60;;;11.40;83.00;;;;;;5052076;28;20174;-91
2023/04/23 05:29:06;;;;;;;10.37;5.90;;;11.40;81.20;;;;;;5055577;28;20178;-89
2023/04/23 05:31:32;;;;;;;9.83;5.50;;;11.40;81.40;;;;;;5055587;28;20732;-90
2023/04/23 05:34:01;;;;;;;10.27;5.00;;;11.40;81.50;;;;;;5047645;28;20233;-89
2023/04/23 05:36:27;;;;;;;8.20;5.00;;;11.50;81.60;;;;;;5053153;28;20161;-90
2023/04/23 05:38:53;;;;;;;10.47;5.27;;;11.60;79.30;;;;;;5047562;28;20172;-90
2023/04/23 05:41:21;;;;;;;10.60;5.53;;;11.60;77.30;;;;;;5051709;28;20174;-88
2023/04/23 05:43:49;;;;;;;8.60;5.07;;;11.70;75.40;;;;;;5057311;28;20166;-87
2023/04/23 05:46:18;;;;;;;8.53;4.63;;;11.70;72.20;;;;;;5049156;28;20547;-91
2023/04/23 05:48:57;;;;;;;7.77;5.17;;;11.70;71.00;;;;;;5047337;28;20162;-92
2023/04/23 05:51:23;;;;;;;7.60;5.20;;;11.80;70.70;;;;;;5045334;28;20465;-92
2023/04/23 05:53:49;;;;;;;10.03;5.00;;;11.90;67.70;;;;;;5060061;28;20227;-92
2023/04/23 05:56:15;;;;;;;7.50;4.43;;;12.00;64.70;;;;;;5043611;28;20162;-91
2023/04/23 05:58:44;;;;;;;8.53;4.60;;;12.00;63.00;;;;;;5038595;28;20197;-91
2023/04/23 06:01:10;;;;;;;8.63;4.50;;;12.10;62.40;;;;;;5038475;28;20253;-89
2023/04/23 06:03:36;;;;;;;9.10;5.23;;;12.20;59.80;;;;;;5058872;28;20200;-91
2023/04/23 06:06:02;;;;;;;9.07;4.40;;;12.40;57.30;;;;;;5041221;28;20162;-92
2023/04/23 06:08:31;;;;;;;8.00;4.33;;;12.50;52.90;;;;;;5040501;28;20197;-92
2023/04/23 06:10:57;;;;;;;7.93;3.93;;;12.50;49.80;;;;;;5037885;28;20180;-92
2023/04/23 06:13:23;;;;;;;7.27;3.77;;;12.50;46.70;;;;;;5037045;28;20295;-92
2023/04/23 06:15:49;;;;;;;8.77;3.50;;;12.50;46.50;;;;;;5038541;28;20634;-93
2023/04/23 06:18:14;;;;;;;8.40;3.80;;;12.50;46.80;;;;;;5049036;28;20182;-92
2023/04/23 06:20:40;;;;;;;8.37;5.37;;;12.60;45.60;;;;;;5042189;28;20165;-92
2023/04/23 06:23:07;;;;;;;10.17;3.70;;;12.70;45.80;;;;;;5038391;28;20184;-91
2023/04/23 06:25:33;;;;;;;7.10;3.77;;;12.70;42.00;;;;;;5040959;28;20199;-92
2023/04/23 06:27:58;;;;;;;9.27;3.83;;;12.80;41.40;;;;;;5041526;28;20177;-92
2023/04/23 06:30:24;;;;;;;7.33;3.73;;;12.90;38.50;;;;;;5051238;28;20185;-90
2023/04/23 06:32:50;;;;;;;8.80;3.30;;;12.80;37.20;;;;;;5057061;28;20200;-91
2023/04/23 06:35:17;;;;;;;7.67;3.30;;;12.80;36.90;;;;;;5058581;28;20198;-87
2023/04/23 06:37:42;;;;;;;9.87;5.10;;;12.90;37.60;;;;;;5060158;28;20169;-89
2023/04/23 06:40:10;;;;;;;7.37;3.83;;;13.00;36.90;;;;;;5044120;28;20178;-91
2023/04/23 06:42:35;;;;;;;9.13;3.67;;;13.00;33.40;;;;;;5038853;28;20243;-91
2023/04/23 06:45:03;;;;;;;8.53;3.00;;;13.10;30.30;;;;;;5037894;28;20170;-89
2023/04/23 06:47:31;;;;;;;7.00;3.43;;;13.10;29.90;;;;;;5036457;28;20172;-91
2023/04/23 06:49:59;;;;;;;11.77;3.57;;;13.10;30.20;;;;;;5043599;28;20173;-92
2023/04/23 06:52:26;;;;;;;7.83;3.50;;;13.10;31.40;;;;;;5039244;28;20553;-91
2023/04/23 06:54:53;;;;;;;7.40;3.00;;;13.20;32.00;;;;;;5041940;28;20185;-89
2023/04/23 06:57:24;;;;;;;6.73;3.13;;;13.30;29.70;;;;;;5045203;28;20212;-91
2023/04/23 06:59:51;;;;;;;9.13;3.13;;;13.40;28.50;;;;;;5046344;28;20235;-92
2023/04/23 07:02:17;;;;;;;7.07;3.00;;;13.40;26.20;;;;;;5050336;28;20177;-88
2023/04/23 07:04:46;;;;;;;8.60;3.20;;;13.40;24.20;;;;;;5052740;28;20173;-91
2023/04/23 07:07:12;;;;;;;7.57;2.80;;;13.50;22.50;;;;;;5044485;28;20632;-91
2023/04/23 07:09:39;;;;;;;7.00;2.93;;;13.50;18.80;;;;;;5044018;28;20181;-91
2023/04/23 07:12:05;;;;;;;7.90;3.37;;;13.50;19.50;;;;;;5041864;28;20199;-91
2023/04/23 07:14:31;;;;;;;10.07;3.17;;;13.60;17.70;;;;;;5042951;28;20265;-91
2023/04/23 07:16:58;;;;;;;8.53;3.23;;;13.70;14.30;;;;;;5039638;28;20162;-93
2023/04/23 07:19:24;;;;;;;8.90;3.10;;;13.80;12.80;;;;;;5040261;28;20204;-91
2023/04/23 07:21:52;;;;;;;5.73;2.83;;;14.00;10.60;;;;;;5038221;28;20193;-92
2023/04/23 07:24:17;;;;;;;9.93;2.93;;;14.00;4.50;;;;;;5039419;28;20191;-93
2023/04/23 07:26:45;;;;;;;7.53;2.90;;;14.10;1.80;;;;;;5057656;28;20204;-92
2023/04/23 07:29:14;;;;;;;7.00;3.20;;;14.10;2.30;;;;;;5058548;28;20324;-90
2023/04/23 07:31:42;;;;;;;7.00;2.80;;;14.10;1.00;;;;;;5046512;28;20678;-90
2023/04/23 07:34:08;;;;;;;6.17;2.73;;;14.10;1.00;;;;;;5034151;28;20181;-91
2023/04/23 07:36:36;;;;;;;10.33;2.97;;;14.20;1.00;;;;;;5039274;28;20182;-91
2023/04/23 07:39:07;;;;;;;10.03;2.93;;;14.30;1.00;;;;;;5044614;28;20201;-93
2023/04/23 07:41:34;;;;;;;6.90;3.00;;;14.40;1.00;;;;;;5042490;28;20166;-90
2023/04/23 07:43:59;;;;;;;6.00;2.60;;;14.50;1.00;;;;;;5041736;28;20173;-89
2023/04/23 07:46:25;;;;;;;8.77;3.10;;;14.50;1.00;;;;;;5058001;28;20197;-89
2023/04/23 07:48:52;;;;;;;5.43;2.70;;;14.70;1.00;;;;;;5038912;28;20186;-87
2023/04/23 07:51:25;;;;;;;10.03;2.90;;;14.70;1.00;;;;;;5035887;28;20184;-88
2023/04/23 07:53:57;;;;;;;8.43;2.70;;;14.80;1.00;;;;;;5034818;28;20253;-90
2023/04/23 07:56:23;;;;;;;9.27;2.93;;;14.90;1.00;;;;;;5039762;28;20173;-90
2023/04/23 07:58:50;;;;;;;8.03;2.90;;;15.00;1.00;;;;;;5047774;28;20192;-88
2023/04/23 08:01:16;;;;;;;7.93;2.87;;;15.10;1.00;;;;;;5041213;28;20258;-88
2023/04/23 08:03:42;;;;;;;9.33;3.00;;;15.10;1.00;;;;;;5039048;28;20657;-90
2023/04/23 08:06:11;;;;;;;7.50;2.80;;;15.20;1.00;;;;;;5041160;28;20177;-90
2023/04/23 08:08:38;;;;;;;8.97;2.57;;;15.20;1.00;;;;;;5041051;28;20193;-91
2023/04/23 08:11:05;;;;;;;8.23;2.90;;;15.10;1.00;;;;;;5043940;28;20193;-91
2023/04/23 08:13:31;;;;;;;11.70;3.10;;;15.20;1.00;;;;;;5040952;28;20209;-88
2023/04/23 08:15:58;;;;;;;7.23;2.30;;;15.10;1.00;;;;;;5047184;28;20268;-87
2023/04/23 08:18:26;;;;;;;7.97;2.60;;;15.10;1.00;;;;;;5050339;28;20215;-88
2023/04/23 08:20:56;;;;;;;7.90;2.50;;;15.10;1.00;;;;;;5051751;28;20235;-88
2023/04/23 08:23:22;;;;;;;8.97;2.97;;;15.10;1.00;;;;;;5046847;28;20203;-87
2023/04/23 08:25:48;;;;;;;7.30;2.33;;;15.10;1.00;;;;;;5044295;28;20240;-88
2023/04/23 08:28:15;;;;;;;7.00;2.57;;;15.10;1.00;;;;;;5038298;28;20708;-88
2023/04/23 08:30:40;;;;;;;9.80;2.67;;;15.20;1.00;;;;;;5048808;28;20199;-88
2023/04/23 08:33:07;;;;;;;8.73;2.90;;;15.40;1.00;;;;;;5042170;28;20212;-89
2023/04/23 08:35:33;;;;;;;5.97;2.23;;;15.50;1.00;;;;;;5038664;28;20546;-86
2023/04/23 08:37:59;;;;;;;9.97;2.50;;;15.60;1.00;;;;;;5038549;28;20173;-88
2023/04/23 08:40:35;;;;;;;12.20;3.00;;;15.70;1.00;;;;;;5039234;28;20246;-88
2023/04/23 08:43:05;;;;;;;8.43;3.30;;;15.80;1.00;;;;;;5039846;28;20197;-89
2023/04/23 08:45:40;;;;;;;8.20;2.20;;;15.80;1.00;;;;;;5036673;28;20208;-89
2023/04/23 08:48:08;;;;;;;10.27;2.47;;;15.80;1.00;;;;;;5037068;28;20177;-87
2023/04/23 08:50:35;;;;;;;5.93;2.33;;;15.80;1.00;;;;;;5046337;28;20301;-87
2023/04/23 08:53:05;;;;;;;5.67;2.60;;;15.80;1.00;;;;;;5040763;28;20264;-86
2023/04/23 08:55:34;;;;;;;6.20;2.07;;;15.90;1.00;;;;;;5035974;28;20174;-85
2023/04/23 08:58:01;;;;;;;7.37;2.43;;;15.90;1.00;;;;;;5035743;28;20181;-87
2023/04/23 09:00:28;;;;;;;7.83;1.80;;;15.70;1.00;;;;;;5037457;28;20170;-89
2023/04/23 09:02:55;;;;;;;7.30;2.33;;;15.70;1.00;;;;;;5037812;28;20178;-88
2023/04/23 09:05:21;;;;;;;9.77;2.93;;;15.70;1.00;;;;;;5057071;28;20167;-85
2023/04/23 09:07:47;;;;;;;6.00;2.53;;;15.70;1.00;;;;;;5055147;28;20280;-87
2023/04/23 09:10:14;;;;;;;7.80;2.43;;;15.70;1.00;;;;;;5029990;28;20186;-86
2023/04/23 09:12:41;;;;;;;6.27;2.03;;;15.80;1.00;;;;;;5055789;28;20213;-86
2023/04/23 09:15:09;;;;;;;9.13;3.37;;;15.80;1.00;;;;;;5056060;28;20174;-86
2023/04/23 09:17:43;;;;;;;6.80;2.00;;;15.80;1.00;;;;;;5041205;28;20191;-87
2023/04/23 09:20:09;;;;;;;7.73;2.27;;;15.90;1.00;;;;;;5038908;28;20188;-86
2023/04/23 09:22:39;;;;;;;7.70;2.50;;;15.90;1.00;;;;;;5048845;28;20171;-87
2023/04/23 09:25:07;;;;;;;9.80;2.47;;;15.90;1.00;;;;;;5049920;28;20174;-86
2023/04/23 09:27:35;;;;;;;6.73;2.27;;;16.00;1.00;;;;;;5054238;28;20180;-86
2023/04/23 09:30:06;;;;;;;7.70;3.00;;;16.10;1.00;;;;;;5050320;28;20216;-87
2023/04/23 09:32:34;;;;;;;5.83;2.40;;;16.20;1.00;;;;;;5053403;28;20207;-85
2023/04/23 09:35:09;;;;;;;7.83;2.60;;;16.20;1.00;;;;;;5053083;28;20166;-87
2023/04/23 09:37:35;;;;;;;5.23;1.70;;;16.40;1.00;;;;;;5041454;28;20198;-85
2023/04/23 09:40:04;;;;;;;7.17;2.23;;;16.30;1.00;;;;;;5057938;28;20194;-87
2023/04/23 09:42:32;;;;;;;10.70;2.53;;;16.30;1.00;;;;;;5057894;28;20166;-87
2023/04/23 09:45:10;;;;;;;4.67;1.63;;;16.30;1.00;;;;;;5056295;28;20240;-87
2023/04/23 09:47:51;;;;;;;6.40;2.07;;;16.30;1.00;;;;;;5048257;28;20201;-87
2023/04/23 09:50:35;;;;;;;7.20;1.93;;;16.30;1.00;;;;;;5040758;28;20174;-89
2023/04/23 09:53:02;;;;;;;8.67;2.37;;;16.30;1.00;;;;;;5035746;28;20225;-85
2023/04/23 09:55:34;;;;;;;6.53;1.87;;;16.30;1.00;;;;;;5043435;28;20169;-89
2023/04/23 09:58:05;;;;;;;9.30;2.23;;;16.30;1.00;;;;;;5047584;28;20181;-87
2023/04/23 10:00:36;;;;;;;5.30;1.40;;;16.20;1.00;;;;;;5046719;28;20192;-84
2023/04/23 10:03:02;;;;;;;4.83;1.90;;;16.20;1.00;;;;;;5041435;28;20186;-87
2023/04/23 10:05:30;;;;;;;8.43;2.17;;;16.10;1.00;;;;;;5040590;28;20211;-86
2023/04/23 10:07:58;;;;;;;7.53;1.90;;;16.30;1.00;;;;;;5041890;28;20203;-86
2023/04/23 10:10:24;;;;;;;6.67;2.47;;;16.40;1.00;;;;;;5043034;28;20265;-88
2023/04/23 10:12:55;;;;;;;6.20;1.67;;;16.50;1.00;;;;;;5036154;28;20240;-87
2023/04/23 10:15:25;;;;;;;8.03;2.07;;;16.40;1.00;;;;;;5035658;28;20203;-84
2023/04/23 10:17:52;;;;;;;7.73;2.17;;;16.40;1.00;;;;;;5034041;28;20186;-84
2023/04/23 10:20:20;;;;;;;7.43;1.93;;;16.50;1.00;;;;;;5035221;28;20181;-85
2023/04/23 10:22:47;;;;;;;7.33;1.73;;;16.60;1.00;;;;;;5034825;28;20540;-84
2023/04/23 10:25:13;;;;;;;7.97;2.03;;;16.60;1.00;;;;;;5033266;28;20264;-89
2023/04/23 10:27:41;;;;;;;8.37;2.70;;;16.50;1.00;;;;;;5035443;28;20174;-86
2023/04/23 10:30:12;;;;;;;5.73;2.10;;;16.50;1.00;;;;;;5034136;28;20197;-89
2023/04/23 10:32:38;;;;;;;6.87;2.40;;;16.70;1.00;;;;;;5035059;28;20194;-88
2023/04/23 10:35:06;;;;;;;5.87;2.13;;;16.80;1.00;;;;;;5038461;28;20232;-84
2023/04/23 10:37:33;;;;;;;7.97;1.87;;;16.70;1.00;;;;;;5034811;28;20884;-85
2023/04/23 10:40:12;;;;;;;7.30;2.97;;;16.70;1.00;;;;;;5035554;28;20239;-90
2023/04/23 10:42:40;;;;;;;5.23;2.27;;;16.80;1.00;;;;;;5036654;28;20189;-87
2023/04/23 10:45:15;;;;;;;6.27;2.30;;;16.70;1.00;;;;;;5035711;28;20641;-87
2023/04/23 10:47:47;;;;;;;6.97;2.63;;;16.60;1.00;;;;;;5035572;28;20186;-88
2023/04/23 10:50:45;;;;;;;8.90;2.10;;;16.50;1.00;;;;;;5032449;28;20212;-86
2023/04/23 10:53:19;;;;;;;10.40;2.57;;;16.50;1.00;;;;;;5034148;28;20209;-84
2023/04/23 10:55:46;;;;;;;8.90;2.23;;;16.50;1.00;;;;;;5031622;28;20173;-88
2023/04/23 10:58:12;;;;;;;9.83;2.30;;;16.70;1.00;;;;;;5033409;28;20181;-87
2023/04/23 11:00:44;;;;;;;8.53;2.20;;;16.70;1.00;;;;;;5033804;28;20257;-84
2023/04/23 11:03:38;;;;;;;9.37;2.23;;;16.80;1.00;;;;;;5032972;28;20231;-86
2023/04/23 11:06:07;;;;;;;6.87;2.10;;;16.70;1.00;;;;;;5034456;28;20183;-86
2023/04/23 11:08:37;;;;;;;7.13;2.03;;;16.80;1.00;;;;;;5054893;28;20205;-86
2023/04/23 11:11:11;;;;;;;8.07;2.17;;;16.90;1.00;;;;;;5043381;28;20288;-87
2023/04/23 11:13:51;;;;;;;6.37;2.20;;;16.90;1.00;;;;;;5038951;28;20258;-88
2023/04/23 11:16:21;;;;;;;5.83;2.10;;;16.80;1.00;;;;;;5039052;28;20173;-84
2023/04/23 11:19:02;;;;;;;7.60;2.07;;;16.80;1.00;;;;;;5039469;28;20193;-84
2023/04/23 11:22:00;;;;;;;5.23;1.83;;;16.80;1.00;;;;;;5043748;28;20176;-85
2023/04/23 11:24:36;;;;;;;6.07;2.13;;;17.00;1.00;;;;;;5042638;28;20178;-87
2023/04/23 11:27:21;;;;;;;6.63;1.83;;;17.00;99.90;;;;;;5045316;28;20269;-88
2023/04/23 11:29:48;;;;;;;4.90;1.70;;;16.80;1.00;;;;;;5048140;28;20201;-88
2023/04/23 11:32:17;;;;;;;7.90;1.63;;;16.70;1.00;;;;;;5050217;28;20208;-86
2023/04/23 11:34:46;;;;;;;7.57;2.10;;;16.60;1.00;;;;;;5049066;28;20258;-87
2023/04/23 11:37:16;;;;;;;8.27;2.10;;;16.70;1.00;;;;;;5046186;28;20172;-88
2023/04/23 11:39:47;;;;;;;5.43;1.97;;;16.70;1.00;;;;;;5021892;28;20181;-90
2023/04/23 11:42:14;;;;;;;7.03;2.00;;;16.70;1.00;;;;;;5030162;28;20249;-87
2023/04/23 11:44:43;;;;;;;5.77;1.77;;;16.70;1.00;;;;;;5052610;28;20229;-88
2023/04/23 11:47:15;;;;;;;6.10;1.80;;;16.50;1.00;;;;;;5047571;28;20165;-88
2023/04/23 11:49:43;;;;;;;3.27;1.90;;;16.30;1.00;;;;;;5042445;28;20250;-88
2023/04/23 11:52:09;;;;;;;6.07;1.90;;;16.10;1.00;;;;;;5044989;28;20181;-86
2023/04/23 11:54:38;;;;;;;5.67;1.73;;;16.00;1.00;;;;;;5039162;28;20195;-88
2023/04/23 11:57:04;;;;;;;4.20;1.77;;;15.70;1.00;;;;;;5023391;28;20220;-87
2023/04/23 11:59:30;;;;;;;6.40;2.00;;;15.90;1.00;;;;;;5039099;28;20235;-87
2023/04/23 12:01:58;;;;;;;4.63;1.70;;;15.80;1.00;;;;;;5043195;28;20182;-87
2023/04/23 12:04:25;;;;;;;7.07;2.37;;;15.70;1.00;;;;;;5038307;28;20180;-87
2023/04/23 12:06:54;;;;;;;5.90;1.83;;;15.60;1.00;;;;;;5039664;28;20242;-86
2023/04/23 12:09:27;;;;;;;5.60;1.90;;;15.50;1.00;;;;;;5040400;28;20200;-85
2023/04/23 12:11:53;;;;;;;8.77;2.10;;;15.40;1.00;;;;;;5044644;28;20232;-86
2023/04/23 12:14:27;;;;;;;5.23;2.03;;;15.30;1.00;;;;;;5036449;28;20217;-85
2023/04/23 12:16:53;;;;;;;6.87;1.83;;;15.20;1.00;;;;;;5032000;28;20254;-86
2023/04/23 12:19:24;;;;;;;6.47;2.70;;;15.20;1.00;;;;;;5030726;28;20579;-86
2023/04/23 12:22:01;;;;;;;8.13;2.33;;;15.20;1.00;;;;;;5031331;28;20182;-85
2023/04/23 12:24:29;;;;;;;6.40;2.90;;;15.30;1.00;;;;;;5032685;28;20204;-86
2023/04/23 12:26:59;;;;;;;6.53;3.13;;;15.40;1.00;;;;;;5033852;28;20260;-88
2023/04/23 12:29:25;;;;;;;9.30;3.37;;;15.70;1.00;;;;;;5036440;28;20197;-89
2023/04/23 12:31:53;;;;;;;7.63;2.63;;;15.70;1.00;;;;;;5032573;28;20181;-88
2023/04/23 12:34:20;;;;;;;8.07;2.70;;;15.50;1.00;;;;;;5022558;28;20224;-89
2023/04/23 12:36:52;;;;;;;7.93;2.70;;;15.50;1.00;;;;;;5035650;28;20175;-89
2023/04/23 12:39:35;;;;;;;6.13;1.87;;;15.40;1.00;;;;;;5037003;28;20182;-87
2023/04/23 12:42:05;;;;;;;7.03;2.57;;;15.20;1.00;;;;;;5037690;28;20188;-86
2023/04/23 12:44:36;;;;;;;7.30;3.67;;;15.30;1.00;;;;;;5034071;28;20670;-85
2023/04/23 12:47:07;;;;;;;10.00;4.83;;;15.30;1.00;;;;;;5034563;28;20293;-86
2023/04/23 12:49:39;;;;;;;6.23;3.70;;;15.50;1.00;;;;;;5037854;28;20178;-89